sensor_id;sensor_type;location;lat;lon;timestamp;pressure;altitude;pressure_sealevel;temperature;humidity
13407;BME280;6774;48.208;10.766;2024-03-29T00:02:19;94204.69;;;3.99;79.71
13407;BME280;6774;48.208;10.766;2024-03-29T00:04:45;94209.28;;;3.97;80.21
13407;BME280;6774;48.208;10.766;2024-03-29T00:07:11;94209.47;;;3.95;79.91
13407;BME280;6774;48.208;10.766;2024-03-29T00:09:37;94200.81;;;3.95;80.01
13407;BME280;6774;48.208;10.766;2024-03-29T00:12:05;94204.69;;;3.99;79.68
13407;BME280;6774;48.208;10.766;2024-03-29T00:14:31;94201.44;;;3.97;79.81
13407;BME280;6774;48.208;10.766;2024-03-29T00:16:57;94187.41;;;3.98;79.54
13407;BME280;6774;48.208;10.766;2024-03-29T00:19:23;94195.59;;;3.95;80.18
13407;BME280;6774;48.208;10.766;2024-03-29T00:21:49;94198.09;;;3.88;80.11
13407;BME280;6774;48.208;10.766;2024-03-29T00:24:15;94202.22;;;3.83;80.46
13407;BME280;6774;48.208;10.766;2024-03-29T00:26:41;94189.72;;;3.78;81.03
13407;BME280;6774;48.208;10.766;2024-03-29T00:29:08;94173.44;;;3.76;80.23
13407;BME280;6774;48.208;10.766;2024-03-29T00:31:34;94190.25;;;3.74;80.78
13407;BME280;6774;48.208;10.766;2024-03-29T00:34:00;94193.13;;;3.64;80.38
13407;BME280;6774;48.208;10.766;2024-03-29T00:36:26;94201.44;;;3.45;79.74
13407;BME280;6774;48.208;10.766;2024-03-29T00:38:52;94190.31;;;3.28;79.33
13407;BME280;6774;48.208;10.766;2024-03-29T00:41:18;94175.25;;;3.38;79.60
13407;BME280;6774;48.208;10.766;2024-03-29T00:43:44;94173.38;;;3.47;80.18
13407;BME280;6774;48.208;10.766;2024-03-29T00:46:11;94165.03;;;3.51;80.34
13407;BME280;6774;48.208;10.766;2024-03-29T00:48:37;94156.94;;;3.46;79.87
13407;BME280;6774;48.208;10.766;2024-03-29T00:51:03;94150.53;;;3.34;79.76
13407;BME280;6774;48.208;10.766;2024-03-29T00:53:29;94155.38;;;2.99;81.00
13407;BME280;6774;48.208;10.766;2024-03-29T00:55:55;94157.22;;;3.13;80.39
13407;BME280;6774;48.208;10.766;2024-03-29T00:58:21;94145.88;;;3.06;80.57
13407;BME280;6774;48.208;10.766;2024-03-29T01:00:47;94137.88;;;3.08;81.09
13407;BME280;6774;48.208;10.766;2024-03-29T01:03:14;94130.53;;;3.11;80.34
13407;BME280;6774;48.208;10.766;2024-03-29T01:05:40;94116.34;;;3.29;80.59
13407;BME280;6774;48.208;10.766;2024-03-29T01:08:06;94113.03;;;3.35;80.54
13407;BME280;6774;48.208;10.766;2024-03-29T01:10:32;94112.78;;;3.45;81.01
13407;BME280;6774;48.208;10.766;2024-03-29T01:12:58;94088.53;;;3.59;79.78
13407;BME280;6774;48.208;10.766;2024-03-29T01:15:24;94085.03;;;3.66;79.21
13407;BME280;6774;48.208;10.766;2024-03-29T01:17:50;94070.63;;;3.70;78.91
13407;BME280;6774;48.208;10.766;2024-03-29T01:20:17;94063.41;;;3.43;77.76
13407;BME280;6774;48.208;10.766;2024-03-29T01:22:43;94058.44;;;3.19;77.60
13407;BME280;6774;48.208;10.766;2024-03-29T01:25:09;94050.06;;;3.08;78.33
13407;BME280;6774;48.208;10.766;2024-03-29T01:27:35;94037.31;;;2.99;79.14
13407;BME280;6774;48.208;10.766;2024-03-29T01:30:01;94033.16;;;2.90;79.16
13407;BME280;6774;48.208;10.766;2024-03-29T01:32:27;94042.50;;;2.84;79.71
13407;BME280;6774;48.208;10.766;2024-03-29T01:34:53;94048.41;;;2.78;80.01
13407;BME280;6774;48.208;10.766;2024-03-29T01:37:20;94048.41;;;2.78;79.40
13407;BME280;6774;48.208;10.766;2024-03-29T01:39:46;94052.81;;;2.77;80.37
13407;BME280;6774;48.208;10.766;2024-03-29T01:42:12;94034.75;;;2.76;80.03
13407;BME280;6774;48.208;10.766;2024-03-29T01:44:38;94034.03;;;2.82;80.88
13407;BME280;6774;48.208;10.766;2024-03-29T01:47:06;94037.28;;;2.84;80.92
13407;BME280;6774;48.208;10.766;2024-03-29T01:49:33;94029.19;;;2.79;80.11
13407;BME280;6774;48.208;10.766;2024-03-29T01:52:01;94040.28;;;2.73;80.68
13407;BME280;6774;48.208;10.766;2024-03-29T01:54:30;94027.28;;;2.73;81.48
13407;BME280;6774;48.208;10.766;2024-03-29T01:56:57;94035.38;;;2.78;81.34
13407;BME280;6774;48.208;10.766;2024-03-29T01:59:25;94042.28;;;2.71;82.19
13407;BME280;6774;48.208;10.766;2024-03-29T02:01:52;94042.91;;;2.73;81.34
13407;BME280;6774;48.208;10.766;2024-03-29T02:04:20;94052.63;;;2.79;81.40
13407;BME280;6774;48.208;10.766;2024-03-29T02:06:48;94044.44;;;2.82;81.58
13407;BME280;6774;48.208;10.766;2024-03-29T02:09:15;94036.75;;;2.89;81.40
13407;BME280;6774;48.208;10.766;2024-03-29T02:11:43;94034.16;;;2.89;81.77
13407;BME280;6774;48.208;10.766;2024-03-29T02:14:10;94044.94;;;2.85;81.84
13407;BME280;6774;48.208;10.766;2024-03-29T02:16:38;94049.78;;;2.89;81.26
13407;BME280;6774;48.208;10.766;2024-03-29T02:19:04;94041.97;;;2.89;81.49
13407;BME280;6774;48.208;10.766;2024-03-29T02:21:35;94046.00;;;2.91;81.11
13407;BME280;6774;48.208;10.766;2024-03-29T02:24:06;94045.38;;;2.89;81.81
13407;BME280;6774;48.208;10.766;2024-03-29T02:26:33;94044.13;;;2.85;81.50
13407;BME280;6774;48.208;10.766;2024-03-29T02:29:02;94038.34;;;2.75;81.93
13407;BME280;6774;48.208;10.766;2024-03-29T02:31:29;94034.09;;;2.74;81.99
13407;BME280;6774;48.208;10.766;2024-03-29T02:33:56;94034.75;;;2.76;81.83
13407;BME280;6774;48.208;10.766;2024-03-29T02:36:22;94034.41;;;2.79;81.76
13407;BME280;6774;48.208;10.766;2024-03-29T02:38:50;94033.59;;;2.78;82.06
13407;BME280;6774;48.208;10.766;2024-03-29T02:41:18;94032.47;;;2.73;82.73
13407;BME280;6774;48.208;10.766;2024-03-29T02:43:45;94038.69;;;2.72;81.89
13407;BME280;6774;48.208;10.766;2024-03-29T02:46:11;94029.88;;;2.73;81.68
13407;BME280;6774;48.208;10.766;2024-03-29T02:48:37;94035.09;;;2.73;82.16
13407;BME280;6774;48.208;10.766;2024-03-29T02:51:04;94036.06;;;2.72;82.32
13407;BME280;6774;48.208;10.766;2024-03-29T02:53:31;94030.25;;;2.70;81.75
13407;BME280;6774;48.208;10.766;2024-03-29T02:55:57;94023.41;;;2.69;82.22
13407;BME280;6774;48.208;10.766;2024-03-29T02:58:24;94018.22;;;2.69;82.57
13407;BME280;6774;48.208;10.766;2024-03-29T03:00:51;94026.66;;;2.71;82.38
13407;BME280;6774;48.208;10.766;2024-03-29T03:03:17;94024.84;;;2.56;82.34
13407;BME280;6774;48.208;10.766;2024-03-29T03:05:44;94042.75;;;2.51;82.26
13407;BME280;6774;48.208;10.766;2024-03-29T03:08:10;94015.72;;;2.52;82.84
13407;BME280;6774;48.208;10.766;2024-03-29T03:10:55;94016.72;;;2.51;82.66
13407;BME280;6774;48.208;10.766;2024-03-29T03:13:29;94020.31;;;2.50;82.10
13407;BME280;6774;48.208;10.766;2024-03-29T03:15:56;94028.19;;;2.42;82.31
13407;BME280;6774;48.208;10.766;2024-03-29T03:18:23;94018.75;;;2.41;82.66
13407;BME280;6774;48.208;10.766;2024-03-29T03:20:51;93998.91;;;2.40;82.11
13407;BME280;6774;48.208;10.766;2024-03-29T03:23:17;93995.69;;;2.38;82.15
13407;BME280;6774;48.208;10.766;2024-03-29T03:25:45;93988.22;;;2.35;83.00
13407;BME280;6774;48.208;10.766;2024-03-29T03:28:11;93969.19;;;2.35;82.86
13407;BME280;6774;48.208;10.766;2024-03-29T03:30:40;93981.69;;;2.39;82.76
13407;BME280;6774;48.208;10.766;2024-03-29T03:33:06;94020.88;;;2.38;82.64
13407;BME280;6774;48.208;10.766;2024-03-29T03:35:33;94017.31;;;2.39;83.32
13407;BME280;6774;48.208;10.766;2024-03-29T03:37:59;94022.03;;;2.35;83.22
13407;BME280;6774;48.208;10.766;2024-03-29T03:40:26;94020.66;;;2.24;82.95
13407;BME280;6774;48.208;10.766;2024-03-29T03:42:52;94012.69;;;2.26;82.92
13407;BME280;6774;48.208;10.766;2024-03-29T03:45:19;94014.66;;;2.24;83.23
13407;BME280;6774;48.208;10.766;2024-03-29T03:47:46;94004.59;;;2.21;82.45
13407;BME280;6774;48.208;10.766;2024-03-29T03:50:13;94024.44;;;2.22;83.41
13407;BME280;6774;48.208;10.766;2024-03-29T03:52:39;94027.03;;;2.22;82.87
13407;BME280;6774;48.208;10.766;2024-03-29T03:55:06;94016.44;;;2.23;83.13
13407;BME280;6774;48.208;10.766;2024-03-29T03:57:32;94011.59;;;2.20;83.39
13407;BME280;6774;48.208;10.766;2024-03-29T04:00:00;94002.63;;;2.23;82.81
13407;BME280;6774;48.208;10.766;2024-03-29T04:02:26;94013.03;;;2.23;83.03
13407;BME280;6774;48.208;10.766;2024-03-29T04:04:54;93997.41;;;2.23;83.48
13407;BME280;6774;48.208;10.766;2024-03-29T04:07:20;93990.69;;;2.28;83.61
13407;BME280;6774;48.208;10.766;2024-03-29T04:09:50;94003.88;;;2.27;82.90
13407;BME280;6774;48.208;10.766;2024-03-29T04:12:16;94003.41;;;2.00;82.72
13407;BME280;6774;48.208;10.766;2024-03-29T04:14:43;93992.03;;;2.02;83.86
13407;BME280;6774;48.208;10.766;2024-03-29T04:17:09;93987.75;;;2.09;83.70
13407;BME280;6774;48.208;10.766;2024-03-29T04:19:36;93966.88;;;2.17;83.73
13407;BME280;6774;48.208;10.766;2024-03-29T04:22:04;93959.69;;;2.19;83.41
13407;BME280;6774;48.208;10.766;2024-03-29T04:24:31;93987.19;;;2.21;83.47
13407;BME280;6774;48.208;10.766;2024-03-29T04:26:57;93966.19;;;2.23;83.49
13407;BME280;6774;48.208;10.766;2024-03-29T04:29:23;93985.38;;;2.22;82.85
13407;BME280;6774;48.208;10.766;2024-03-29T04:31:49;93991.16;;;1.86;84.04
13407;BME280;6774;48.208;10.766;2024-03-29T04:34:16;93993.22;;;1.91;83.42
13407;BME280;6774;48.208;10.766;2024-03-29T04:36:42;93994.69;;;1.93;83.21
13407;BME280;6774;48.208;10.766;2024-03-29T04:39:11;93978.84;;;2.03;82.88
13407;BME280;6774;48.208;10.766;2024-03-29T04:41:37;93974.56;;;2.10;83.24
13407;BME280;6774;48.208;10.766;2024-03-29T04:44:04;93957.41;;;2.24;82.77
13407;BME280;6774;48.208;10.766;2024-03-29T04:46:33;93961.53;;;2.33;83.54
13407;BME280;6774;48.208;10.766;2024-03-29T04:49:00;93954.38;;;2.35;82.97
13407;BME280;6774;48.208;10.766;2024-03-29T04:51:27;93962.00;;;2.37;82.79
13407;BME280;6774;48.208;10.766;2024-03-29T04:53:54;93948.09;;;2.44;83.61
13407;BME280;6774;48.208;10.766;2024-03-29T04:56:22;93940.41;;;2.51;83.33
13407;BME280;6774;48.208;10.766;2024-03-29T04:58:49;93951.00;;;2.49;82.75
13407;BME280;6774;48.208;10.766;2024-03-29T05:01:16;93939.88;;;2.55;82.43
13407;BME280;6774;48.208;10.766;2024-03-29T05:03:43;93931.16;;;2.63;83.00
13407;BME280;6774;48.208;10.766;2024-03-29T05:06:10;93936.13;;;2.73;82.71
13407;BME280;6774;48.208;10.766;2024-03-29T05:08:37;93935.69;;;2.84;83.15
13407;BME280;6774;48.208;10.766;2024-03-29T05:11:03;93932.34;;;2.90;83.04
13407;BME280;6774;48.208;10.766;2024-03-29T05:13:32;93933.25;;;2.97;82.87
13407;BME280;6774;48.208;10.766;2024-03-29T05:16:00;93935.22;;;3.10;83.39
13407;BME280;6774;48.208;10.766;2024-03-29T05:18:27;93936.31;;;3.16;82.75
13407;BME280;6774;48.208;10.766;2024-03-29T05:20:53;93956.47;;;3.22;82.64
13407;BME280;6774;48.208;10.766;2024-03-29T05:23:21;93962.09;;;3.25;82.49
13407;BME280;6774;48.208;10.766;2024-03-29T05:25:47;93965.88;;;3.23;82.33
13407;BME280;6774;48.208;10.766;2024-03-29T05:28:15;93964.53;;;3.27;81.80
13407;BME280;6774;48.208;10.766;2024-03-29T05:30:43;93962.81;;;3.34;82.54
13407;BME280;6774;48.208;10.766;2024-03-29T05:33:10;93970.13;;;3.38;82.22
13407;BME280;6774;48.208;10.766;2024-03-29T05:35:37;93970.00;;;3.47;82.58
13407;BME280;6774;48.208;10.766;2024-03-29T05:38:04;93976.47;;;3.51;82.51
13407;BME280;6774;48.208;10.766;2024-03-29T05:40:31;93994.16;;;3.55;82.12
13407;BME280;6774;48.208;10.766;2024-03-29T05:42:58;93989.84;;;3.62;82.26
13407;BME280;6774;48.208;10.766;2024-03-29T05:45:26;93995.97;;;3.69;82.49
13407;BME280;6774;48.208;10.766;2024-03-29T05:47:56;93998.72;;;3.83;81.92
13407;BME280;6774;48.208;10.766;2024-03-29T05:50:24;93996.09;;;3.83;81.56
13407;BME280;6774;48.208;10.766;2024-03-29T05:52:51;94010.31;;;3.95;81.76
13407;BME280;6774;48.208;10.766;2024-03-29T05:55:19;93984.72;;;4.05;81.44
13407;BME280;6774;48.208;10.766;2024-03-29T05:57:46;94012.31;;;4.14;80.92
13407;BME280;6774;48.208;10.766;2024-03-29T06:00:14;93977.09;;;4.25;80.65
13407;BME280;6774;48.208;10.766;2024-03-29T06:02:42;93980.44;;;4.40;80.61
13407;BME280;6774;48.208;10.766;2024-03-29T06:05:11;93978.13;;;4.52;80.63
13407;BME280;6774;48.208;10.766;2024-03-29T06:07:38;93965.56;;;4.62;80.50
13407;BME280;6774;48.208;10.766;2024-03-29T06:10:06;93976.47;;;4.72;79.00
13407;BME280;6774;48.208;10.766;2024-03-29T06:12:34;93965.69;;;4.82;78.31
13407;BME280;6774;48.208;10.766;2024-03-29T06:15:01;93978.06;;;4.95;78.52
13407;BME280;6774;48.208;10.766;2024-03-29T06:17:46;93998.88;;;5.09;79.97
13407;BME280;6774;48.208;10.766;2024-03-29T06:20:14;93995.75;;;5.27;79.74
13407;BME280;6774;48.208;10.766;2024-03-29T06:22:41;94007.16;;;5.48;79.56
13407;BME280;6774;48.208;10.766;2024-03-29T06:25:08;94009.59;;;5.56;78.66
13407;BME280;6774;48.208;10.766;2024-03-29T06:27:36;94003.84;;;5.67;78.10
13407;BME280;6774;48.208;10.766;2024-03-29T06:30:04;93994.03;;;5.82;77.52
13407;BME280;6774;48.208;10.766;2024-03-29T06:32:31;93995.13;;;5.94;77.42
13407;BME280;6774;48.208;10.766;2024-03-29T06:34:58;93994.97;;;6.09;77.96
13407;BME280;6774;48.208;10.766;2024-03-29T06:37:27;93999.44;;;6.22;77.91
13407;BME280;6774;48.208;10.766;2024-03-29T06:39:55;93999.88;;;6.32;77.66
13407;BME280;6774;48.208;10.766;2024-03-29T06:42:22;93998.25;;;6.38;77.38
13407;BME280;6774;48.208;10.766;2024-03-29T06:44:48;94004.69;;;6.35;77.45
13407;BME280;6774;48.208;10.766;2024-03-29T06:47:15;94010.34;;;6.45;77.70
13407;BME280;6774;48.208;10.766;2024-03-29T06:49:42;94007.38;;;6.62;77.02
13407;BME280;6774;48.208;10.766;2024-03-29T06:52:09;94004.75;;;6.81;75.81
13407;BME280;6774;48.208;10.766;2024-03-29T06:54:37;94003.56;;;6.97;74.88
13407;BME280;6774;48.208;10.766;2024-03-29T06:57:04;94005.16;;;6.98;75.16
13407;BME280;6774;48.208;10.766;2024-03-29T06:59:32;94000.13;;;7.17;74.88
13407;BME280;6774;48.208;10.766;2024-03-29T07:01:58;93998.25;;;7.30;74.85
13407;BME280;6774;48.208;10.766;2024-03-29T07:04:25;94000.72;;;7.32;74.79
13407;BME280;6774;48.208;10.766;2024-03-29T07:06:53;94000.66;;;7.45;74.30
13407;BME280;6774;48.208;10.766;2024-03-29T07:09:21;93985.50;;;7.54;74.16
13407;BME280;6774;48.208;10.766;2024-03-29T07:11:51;93986.47;;;7.66;73.85
13407;BME280;6774;48.208;10.766;2024-03-29T07:14:18;93988.44;;;7.84;74.55
13407;BME280;6774;48.208;10.766;2024-03-29T07:16:46;93982.94;;;7.98;74.31
13407;BME280;6774;48.208;10.766;2024-03-29T07:19:13;93985.94;;;8.02;74.69
13407;BME280;6774;48.208;10.766;2024-03-29T07:21:42;93996.06;;;7.98;74.08
13407;BME280;6774;48.208;10.766;2024-03-29T07:24:08;93984.19;;;8.27;73.94
13407;BME280;6774;48.208;10.766;2024-03-29T07:26:35;93998.72;;;8.43;72.55
13407;BME280;6774;48.208;10.766;2024-03-29T07:29:05;94024.28;;;8.16;73.13
13407;BME280;6774;48.208;10.766;2024-03-29T07:31:32;94021.25;;;8.58;71.83
13407;BME280;6774;48.208;10.766;2024-03-29T07:33:59;94019.44;;;8.90;72.12
13407;BME280;6774;48.208;10.766;2024-03-29T07:36:26;94026.59;;;8.76;72.07
13407;BME280;6774;48.208;10.766;2024-03-29T07:38:57;94014.19;;;8.90;70.02
13407;BME280;6774;48.208;10.766;2024-03-29T07:41:24;94035.69;;;9.05;67.87
13407;BME280;6774;48.208;10.766;2024-03-29T07:43:52;94017.28;;;9.05;66.32
13407;BME280;6774;48.208;10.766;2024-03-29T07:46:23;94020.09;;;9.10;67.50
13407;BME280;6774;48.208;10.766;2024-03-29T07:48:50;94024.16;;;9.31;67.12
13407;BME280;6774;48.208;10.766;2024-03-29T07:51:17;94017.22;;;9.61;65.61
13407;BME280;6774;48.208;10.766;2024-03-29T07:53:44;94017.75;;;9.88;64.33
13407;BME280;6774;48.208;10.766;2024-03-29T07:56:11;94030.31;;;10.23;67.12
13407;BME280;6774;48.208;10.766;2024-03-29T07:58:38;94016.91;;;10.73;66.63
13407;BME280;6774;48.208;10.766;2024-03-29T08:01:05;94000.69;;;11.11;65.78
13407;BME280;6774;48.208;10.766;2024-03-29T08:03:33;94005.66;;;11.54;65.27
13407;BME280;6774;48.208;10.766;2024-03-29T08:06:00;94003.56;;;12.03;64.07
13407;BME280;6774;48.208;10.766;2024-03-29T08:08:29;94009.06;;;12.53;63.46
13407;BME280;6774;48.208;10.766;2024-03-29T08:10:57;94009.59;;;12.67;61.46
13407;BME280;6774;48.208;10.766;2024-03-29T08:13:24;94013.13;;;12.73;61.20
13407;BME280;6774;48.208;10.766;2024-03-29T08:15:56;94003.47;;;12.67;60.46
13407;BME280;6774;48.208;10.766;2024-03-29T08:18:23;94009.09;;;12.70;60.62
13407;BME280;6774;48.208;10.766;2024-03-29T08:20:52;94018.66;;;12.71;60.60
13407;BME280;6774;48.208;10.766;2024-03-29T08:23:20;94014.00;;;12.78;60.79
13407;BME280;6774;48.208;10.766;2024-03-29T08:25:47;94005.63;;;12.81;60.50
13407;BME280;6774;48.208;10.766;2024-03-29T08:28:14;94010.97;;;12.87;61.14
13407;BME280;6774;48.208;10.766;2024-03-29T08:30:41;94014.94;;;13.01;61.83
13407;BME280;6774;48.208;10.766;2024-03-29T08:33:08;94026.47;;;13.23;62.88
13407;BME280;6774;48.208;10.766;2024-03-29T08:35:35;94015.06;;;13.40;62.18
13407;BME280;6774;48.208;10.766;2024-03-29T08:38:04;94008.56;;;13.47;60.54
13407;BME280;6774;48.208;10.766;2024-03-29T08:40:31;94003.34;;;13.52;60.53
13407;BME280;6774;48.208;10.766;2024-03-29T08:42:59;94002.22;;;13.65;62.57
13407;BME280;6774;48.208;10.766;2024-03-29T08:45:26;94002.91;;;13.77;62.87
13407;BME280;6774;48.208;10.766;2024-03-29T08:47:53;93992.63;;;13.81;62.99
13407;BME280;6774;48.208;10.766;2024-03-29T08:50:20;93979.31;;;13.98;62.74
13407;BME280;6774;48.208;10.766;2024-03-29T08:52:47;93977.78;;;14.02;63.06
13407;BME280;6774;48.208;10.766;2024-03-29T08:55:15;93968.69;;;13.98;63.05
13407;BME280;6774;48.208;10.766;2024-03-29T08:57:42;93972.41;;;13.97;62.56
13407;BME280;6774;48.208;10.766;2024-03-29T09:00:10;93959.56;;;13.88;63.58
13407;BME280;6774;48.208;10.766;2024-03-29T09:02:37;93971.22;;;13.87;63.51
13407;BME280;6774;48.208;10.766;2024-03-29T09:05:05;93969.13;;;13.89;64.40
13407;BME280;6774;48.208;10.766;2024-03-29T09:07:32;93976.19;;;14.01;63.66
13407;BME280;6774;48.208;10.766;2024-03-29T09:09:59;93974.09;;;14.03;63.18
13407;BME280;6774;48.208;10.766;2024-03-29T09:12:27;93969.88;;;14.07;63.00
13407;BME280;6774;48.208;10.766;2024-03-29T09:14:54;93975.06;;;13.97;62.03
13407;BME280;6774;48.208;10.766;2024-03-29T09:17:21;93979.38;;;14.03;62.20
13407;BME280;6774;48.208;10.766;2024-03-29T09:19:50;93987.47;;;14.13;61.61
13407;BME280;6774;48.208;10.766;2024-03-29T09:22:17;93993.69;;;14.02;59.71
13407;BME280;6774;48.208;10.766;2024-03-29T09:24:44;93998.00;;;14.08;60.98
13407;BME280;6774;48.208;10.766;2024-03-29T09:27:11;94010.03;;;14.15;62.32
13407;BME280;6774;48.208;10.766;2024-03-29T09:29:39;94008.31;;;14.26;62.60
13407;BME280;6774;48.208;10.766;2024-03-29T09:32:06;94014.00;;;14.35;62.59
13407;BME280;6774;48.208;10.766;2024-03-29T09:34:33;94015.91;;;14.39;62.70
13407;BME280;6774;48.208;10.766;2024-03-29T09:37:00;94014.28;;;14.55;62.07
13407;BME280;6774;48.208;10.766;2024-03-29T09:39:28;94006.06;;;14.57;61.50
13407;BME280;6774;48.208;10.766;2024-03-29T09:41:57;94018.28;;;14.58;61.83
13407;BME280;6774;48.208;10.766;2024-03-29T09:44:28;94023.97;;;14.66;61.67
13407;BME280;6774;48.208;10.766;2024-03-29T09:47:03;94030.25;;;14.82;62.37
13407;BME280;6774;48.208;10.766;2024-03-29T09:49:31;94030.13;;;14.99;62.05
13407;BME280;6774;48.208;10.766;2024-03-29T09:51:58;93993.59;;;14.84;62.55
13407;BME280;6774;48.208;10.766;2024-03-29T09:54:27;93983.31;;;15.20;62.72
13407;BME280;6774;48.208;10.766;2024-03-29T09:56:55;94012.56;;;13.83;65.76
13407;BME280;6774;48.208;10.766;2024-03-29T09:59:22;94006.50;;;14.48;65.34
13407;BME280;6774;48.208;10.766;2024-03-29T10:01:50;93981.03;;;15.01;61.54
13407;BME280;6774;48.208;10.766;2024-03-29T10:04:20;93971.16;;;15.29;60.83
13407;BME280;6774;48.208;10.766;2024-03-29T10:06:48;93984.22;;;15.68;60.36
13407;BME280;6774;48.208;10.766;2024-03-29T10:09:17;93991.25;;;16.41;60.79
13407;BME280;6774;48.208;10.766;2024-03-29T10:11:44;93982.88;;;16.85;59.45
13407;BME280;6774;48.208;10.766;2024-03-29T10:14:11;93985.88;;;17.45;59.08
13407;BME280;6774;48.208;10.766;2024-03-29T10:16:38;93978.94;;;17.33;56.77
13407;BME280;6774;48.208;10.766;2024-03-29T10:19:07;93977.88;;;17.34;56.36
13407;BME280;6774;48.208;10.766;2024-03-29T10:21:37;93983.19;;;17.24;56.73
13407;BME280;6774;48.208;10.766;2024-03-29T10:24:11;93975.75;;;17.31;56.83
13407;BME280;6774;48.208;10.766;2024-03-29T10:26:39;93984.56;;;17.47;56.57
13407;BME280;6774;48.208;10.766;2024-03-29T10:29:06;93990.41;;;17.59;56.65
13407;BME280;6774;48.208;10.766;2024-03-29T10:31:34;93989.81;;;18.08;56.96
13407;BME280;6774;48.208;10.766;2024-03-29T10:34:02;93994.75;;;18.45;56.57
13407;BME280;6774;48.208;10.766;2024-03-29T10:36:30;93995.78;;;18.65;54.48
13407;BME280;6774;48.208;10.766;2024-03-29T10:39:09;93992.59;;;18.58;54.31
13407;BME280;6774;48.208;10.766;2024-03-29T10:41:38;93999.53;;;18.59;55.55
13407;BME280;6774;48.208;10.766;2024-03-29T10:44:08;93996.03;;;18.68;55.46
13407;BME280;6774;48.208;10.766;2024-03-29T10:46:36;93991.72;;;18.72;55.33
13407;BME280;6774;48.208;10.766;2024-03-29T10:49:06;94006.16;;;18.77;55.64
13407;BME280;6774;48.208;10.766;2024-03-29T10:51:37;94005.94;;;18.53;54.46
13407;BME280;6774;48.208;10.766;2024-03-29T10:54:08;94002.28;;;18.33;54.41
13407;BME280;6774;48.208;10.766;2024-03-29T10:56:36;94002.06;;;18.19;53.74
13407;BME280;6774;48.208;10.766;2024-03-29T10:59:08;93996.25;;;18.02;53.98
13407;BME280;6774;48.208;10.766;2024-03-29T11:01:41;93995.97;;;18.04;55.30
13407;BME280;6774;48.208;10.766;2024-03-29T11:04:16;93992.47;;;18.13;55.67
13407;BME280;6774;48.208;10.766;2024-03-29T11:06:47;93992.44;;;18.24;55.74
13407;BME280;6774;48.208;10.766;2024-03-29T11:09:19;94008.13;;;18.45;54.97
13407;BME280;6774;48.208;10.766;2024-03-29T11:11:50;93989.66;;;18.54;54.63
13407;BME280;6774;48.208;10.766;2024-03-29T11:14:20;93981.09;;;18.67;54.37
13407;BME280;6774;48.208;10.766;2024-03-29T11:16:50;93971.16;;;18.73;54.90
13407;BME280;6774;48.208;10.766;2024-03-29T11:19:22;93973.53;;;18.80;54.65
13407;BME280;6774;48.208;10.766;2024-03-29T11:21:50;93989.50;;;18.90;54.66
13407;BME280;6774;48.208;10.766;2024-03-29T11:24:22;93994.50;;;19.07;54.63
13407;BME280;6774;48.208;10.766;2024-03-29T11:26:49;93978.44;;;19.07;54.47
13407;BME280;6774;48.208;10.766;2024-03-29T11:29:20;93970.63;;;19.15;53.93
13407;BME280;6774;48.208;10.766;2024-03-29T11:31:47;93975.03;;;19.35;54.08
13407;BME280;6774;48.208;10.766;2024-03-29T11:34:18;93967.44;;;19.47;54.03
13407;BME280;6774;48.208;10.766;2024-03-29T11:36:46;93963.28;;;19.65;53.86
13407;BME280;6774;48.208;10.766;2024-03-29T11:39:21;93972.66;;;19.68;53.08
13407;BME280;6774;48.208;10.766;2024-03-29T11:41:50;93957.72;;;19.62;52.63
13407;BME280;6774;48.208;10.766;2024-03-29T11:44:17;93956.81;;;19.71;52.63
13407;BME280;6774;48.208;10.766;2024-03-29T11:46:44;93948.66;;;19.86;53.32
13407;BME280;6774;48.208;10.766;2024-03-29T11:49:12;93936.78;;;19.93;51.97
13407;BME280;6774;48.208;10.766;2024-03-29T11:51:41;93943.72;;;19.70;51.92
13407;BME280;6774;48.208;10.766;2024-03-29T11:54:08;93940.13;;;19.50;51.02
13407;BME280;6774;48.208;10.766;2024-03-29T11:56:37;93929.28;;;19.37;53.09
13407;BME280;6774;48.208;10.766;2024-03-29T11:59:04;93937.50;;;19.45;53.37
13407;BME280;6774;48.208;10.766;2024-03-29T12:01:31;93932.94;;;19.46;53.15
13407;BME280;6774;48.208;10.766;2024-03-29T12:03:59;93915.06;;;19.41;53.12
13407;BME280;6774;48.208;10.766;2024-03-29T12:06:26;93905.47;;;19.35;53.22
13407;BME280;6774;48.208;10.766;2024-03-29T12:08:54;93900.47;;;18.94;53.92
13407;BME280;6774;48.208;10.766;2024-03-29T12:11:21;93902.00;;;19.06;54.32
13407;BME280;6774;48.208;10.766;2024-03-29T12:13:50;93906.75;;;19.14;55.14
13407;BME280;6774;48.208;10.766;2024-03-29T12:16:17;93905.69;;;19.10;55.09
13407;BME280;6774;48.208;10.766;2024-03-29T12:18:46;93892.78;;;19.22;54.64
13407;BME280;6774;48.208;10.766;2024-03-29T12:21:13;93881.97;;;19.32;55.64
13407;BME280;6774;48.208;10.766;2024-03-29T12:23:47;93873.97;;;19.32;55.53
13407;BME280;6774;48.208;10.766;2024-03-29T12:26:15;93868.66;;;19.27;55.58
13407;BME280;6774;48.208;10.766;2024-03-29T12:28:49;93871.13;;;19.47;55.71
13407;BME280;6774;48.208;10.766;2024-03-29T12:31:16;93870.56;;;19.79;55.82
13407;BME280;6774;48.208;10.766;2024-03-29T12:33:51;93874.59;;;20.01;55.23
13407;BME280;6774;48.208;10.766;2024-03-29T12:36:18;93863.88;;;20.25;55.15
13407;BME280;6774;48.208;10.766;2024-03-29T12:38:46;93862.78;;;20.26;55.72
13407;BME280;6774;48.208;10.766;2024-03-29T12:41:15;93863.13;;;20.43;54.35
13407;BME280;6774;48.208;10.766;2024-03-29T12:43:42;93860.59;;;20.70;53.69
13407;BME280;6774;48.208;10.766;2024-03-29T12:46:10;93845.88;;;20.87;53.93
13407;BME280;6774;48.208;10.766;2024-03-29T12:48:37;93844.13;;;20.77;53.58
13407;BME280;6774;48.208;10.766;2024-03-29T12:51:06;93842.25;;;20.78;54.31
13407;BME280;6774;48.208;10.766;2024-03-29T12:53:33;93834.31;;;21.05;54.01
13407;BME280;6774;48.208;10.766;2024-03-29T12:56:04;93843.69;;;21.21;53.47
13407;BME280;6774;48.208;10.766;2024-03-29T12:58:31;93836.22;;;21.65;54.06
13407;BME280;6774;48.208;10.766;2024-03-29T13:00:57;93821.72;;;21.79;52.97
13407;BME280;6774;48.208;10.766;2024-03-29T13:03:26;93821.78;;;22.29;52.63
13407;BME280;6774;48.208;10.766;2024-03-29T13:05:53;93820.84;;;22.48;52.07
13407;BME280;6774;48.208;10.766;2024-03-29T13:08:20;93808.00;;;22.81;51.32
13407;BME280;6774;48.208;10.766;2024-03-29T13:10:47;93813.47;;;23.12;51.69